sensor_id;sensor_type;location;lat;lon;timestamp;pressure;altitude;pressure_sealevel;temperature;humidity
9423;BME280;65863;49.506;10.400;2023-07-31T00:01:24;97985.03;;;15.53;73.89
9423;BME280;65863;49.506;10.400;2023-07-31T00:04:08;97944.59;;;15.33;73.76
9423;BME280;65863;49.506;10.400;2023-07-31T00:06:53;97977.41;;;15.46;73.68
9423;BME280;65863;49.506;10.400;2023-07-31T00:09:37;97976.06;;;15.47;73.56
9423;BME280;65863;49.506;10.400;2023-07-31T00:12:20;97963.72;;;15.52;73.53
9423;BME280;65863;49.506;10.400;2023-07-31T00:15:06;97923.09;;;15.20;73.11
9423;BME280;65863;49.506;10.400;2023-07-31T00:17:50;97982.13;;;15.71;73.22
9423;BME280;65863;49.506;10.400;2023-07-31T00:20:34;97976.28;;;15.69;73.16
9423;BME280;65863;49.506;10.400;2023-07-31T00:23:18;97942.53;;;15.43;73.23
9423;BME280;65863;49.506;10.400;2023-07-31T00:26:02;97949.75;;;15.54;72.96
9423;BME280;65863;49.506;10.400;2023-07-31T00:28:46;97951.69;;;15.61;72.87
9423;BME280;65863;49.506;10.400;2023-07-31T00:31:32;97953.16;;;15.53;72.99
9423;BME280;65863;49.506;10.400;2023-07-31T00:34:16;97967.97;;;15.71;73.07
9423;BME280;65863;49.506;10.400;2023-07-31T00:37:00;97986.50;;;15.81;73.02
9423;BME280;65863;49.506;10.400;2023-07-31T00:39:44;97947.22;;;15.58;72.85
9423;BME280;65863;49.506;10.400;2023-07-31T00:42:28;97946.19;;;15.63;72.76
9423;BME280;65863;49.506;10.400;2023-07-31T00:45:12;97950.97;;;15.61;72.64
9423;BME280;65863;49.506;10.400;2023-07-31T00:47:57;97956.38;;;15.76;72.54
9423;BME280;65863;49.506;10.400;2023-07-31T00:50:41;97961.34;;;15.86;72.57
9423;BME280;65863;49.506;10.400;2023-07-31T00:53:25;97934.16;;;15.73;72.33
9423;BME280;65863;49.506;10.400;2023-07-31T00:56:09;97875.44;;;15.44;71.76
9423;BME280;65863;49.506;10.400;2023-07-31T00:58:56;97943.91;;;15.99;71.62
9423;BME280;65863;49.506;10.400;2023-07-31T01:01:40;97915.91;;;15.83;71.32
9423;BME280;65863;49.506;10.400;2023-07-31T01:04:24;97932.16;;;15.93;71.02
9423;BME280;65863;49.506;10.400;2023-07-31T01:07:22;97953.03;;;16.07;70.56
9423;BME280;65863;49.506;10.400;2023-07-31T01:10:18;97958.13;;;16.18;70.41
9423;BME280;65863;49.506;10.400;2023-07-31T01:13:05;97919.19;;;15.90;70.08
9423;BME280;65863;49.506;10.400;2023-07-31T01:15:49;97940.22;;;16.16;69.78
9423;BME280;65863;49.506;10.400;2023-07-31T01:18:33;97960.34;;;16.30;69.08
9423;BME280;65863;49.506;10.400;2023-07-31T01:24:23;97950.53;;;16.31;69.39
9423;BME280;65863;49.506;10.400;2023-07-31T01:27:14;97939.78;;;16.20;69.75
9423;BME280;65863;49.506;10.400;2023-07-31T01:30:05;97933.81;;;16.15;69.87
9423;BME280;65863;49.506;10.400;2023-07-31T01:32:55;97922.78;;;16.00;69.84
9423;BME280;65863;49.506;10.400;2023-07-31T01:35:44;97909.50;;;15.93;70.12
9423;BME280;65863;49.506;10.400;2023-07-31T01:38:29;97904.00;;;15.95;69.89
9423;BME280;65863;49.506;10.400;2023-07-31T01:41:13;97919.63;;;15.96;70.22
9423;BME280;65863;49.506;10.400;2023-07-31T01:43:57;97927.41;;;16.05;70.33
9423;BME280;65863;49.506;10.400;2023-07-31T01:46:41;97912.34;;;15.93;70.27
9423;BME280;65863;49.506;10.400;2023-07-31T01:49:26;97936.63;;;16.06;70.78
9423;BME280;65863;49.506;10.400;2023-07-31T01:52:10;97896.38;;;15.88;70.94
9423;BME280;65863;49.506;10.400;2023-07-31T01:54:54;97912.78;;;15.99;71.00
9423;BME280;65863;49.506;10.400;2023-07-31T01:57:39;97882.50;;;15.72;71.17
9423;BME280;65863;49.506;10.400;2023-07-31T02:00:23;97870.41;;;15.62;71.25
9423;BME280;65863;49.506;10.400;2023-07-31T02:03:07;97892.19;;;15.79;71.29
9423;BME280;65863;49.506;10.400;2023-07-31T02:05:51;97881.88;;;15.64;71.13
9423;BME280;65863;49.506;10.400;2023-07-31T02:08:35;97866.41;;;15.65;71.29
9423;BME280;65863;49.506;10.400;2023-07-31T02:11:19;97902.19;;;15.80;71.26
9423;BME280;65863;49.506;10.400;2023-07-31T02:14:03;97876.66;;;15.60;71.44
9423;BME280;65863;49.506;10.400;2023-07-31T02:16:47;97869.81;;;15.54;71.52
9423;BME280;65863;49.506;10.400;2023-07-31T02:19:31;97859.34;;;15.46;71.56
9423;BME280;65863;49.506;10.400;2023-07-31T02:22:15;97855.03;;;15.45;71.57
9423;BME280;65863;49.506;10.400;2023-07-31T02:24:59;97884.53;;;15.62;71.78
9423;BME280;65863;49.506;10.400;2023-07-31T02:27:44;97889.03;;;15.65;71.71
9423;BME280;65863;49.506;10.400;2023-07-31T02:30:28;97850.56;;;15.42;71.95
9423;BME280;65863;49.506;10.400;2023-07-31T02:33:12;97879.66;;;15.72;71.74
9423;BME280;65863;49.506;10.400;2023-07-31T02:35:56;97886.53;;;15.79;71.71
9423;BME280;65863;49.506;10.400;2023-07-31T02:38:40;97871.75;;;15.61;71.72
9423;BME280;65863;49.506;10.400;2023-07-31T02:41:24;97845.66;;;15.43;71.68
9423;BME280;65863;49.506;10.400;2023-07-31T02:44:08;97821.66;;;15.34;71.89
9423;BME280;65863;49.506;10.400;2023-07-31T02:46:54;97876.22;;;15.64;71.83
9423;BME280;65863;49.506;10.400;2023-07-31T02:49:38;97883.09;;;15.71;71.95
9423;BME280;65863;49.506;10.400;2023-07-31T02:52:22;97857.13;;;15.55;71.62
9423;BME280;65863;49.506;10.400;2023-07-31T02:55:06;97858.94;;;15.60;71.39
9423;BME280;65863;49.506;10.400;2023-07-31T02:57:50;97874.59;;;15.71;71.65
9423;BME280;65863;49.506;10.400;2023-07-31T03:00:36;97876.22;;;15.64;71.65
9423;BME280;65863;49.506;10.400;2023-07-31T03:03:20;97838.50;;;15.42;71.59
9423;BME280;65863;49.506;10.400;2023-07-31T03:06:04;97838.06;;;15.45;71.50
9423;BME280;65863;49.506;10.400;2023-07-31T03:08:48;97819.53;;;15.25;71.51
9423;BME280;65863;49.506;10.400;2023-07-31T03:11:32;97845.19;;;15.46;71.33
9423;BME280;65863;49.506;10.400;2023-07-31T03:14:17;97850.59;;;15.62;71.23
9423;BME280;65863;49.506;10.400;2023-07-31T03:17:01;97832.41;;;15.45;70.94
9423;BME280;65863;49.506;10.400;2023-07-31T03:19:45;97839.13;;;15.50;70.80
9423;BME280;65863;49.506;10.400;2023-07-31T03:22:29;97698.53;;;14.57;70.63
9423;BME280;65863;49.506;10.400;2023-07-31T03:25:13;97793.09;;;15.30;70.57
9423;BME280;65863;49.506;10.400;2023-07-31T03:27:58;97871.06;;;15.80;70.29
9423;BME280;65863;49.506;10.400;2023-07-31T03:30:42;97851.50;;;15.74;70.35
9423;BME280;65863;49.506;10.400;2023-07-31T03:33:26;97873.16;;;15.89;70.48
9423;BME280;65863;49.506;10.400;2023-07-31T03:36:10;97849.72;;;15.69;70.33
9423;BME280;65863;49.506;10.400;2023-07-31T03:38:54;97846.59;;;15.65;70.40
9423;BME280;65863;49.506;10.400;2023-07-31T03:41:38;97854.03;;;15.70;70.60
9423;BME280;65863;49.506;10.400;2023-07-31T03:44:22;97847.63;;;15.60;70.53
9423;BME280;65863;49.506;10.400;2023-07-31T03:47:06;97849.41;;;15.55;70.74
9423;BME280;65863;49.506;10.400;2023-07-31T03:49:50;97790.50;;;15.14;70.88
9423;BME280;65863;49.506;10.400;2023-07-31T03:52:34;97863.06;;;15.49;71.14
9423;BME280;65863;49.506;10.400;2023-07-31T03:55:18;97827.88;;;15.23;71.47
9423;BME280;65863;49.506;10.400;2023-07-31T03:58:02;97851.69;;;15.29;71.87
9423;BME280;65863;49.506;10.400;2023-07-31T04:00:47;97862.00;;;15.35;71.85
9423;BME280;65863;49.506;10.400;2023-07-31T04:03:31;97845.41;;;15.11;72.21
9423;BME280;65863;49.506;10.400;2023-07-31T04:06:15;97851.47;;;15.08;72.48
9423;BME280;65863;49.506;10.400;2023-07-31T04:09:02;97849.88;;;15.14;72.63
9423;BME280;65863;49.506;10.400;2023-07-31T04:11:46;97843.72;;;14.98;72.88
9423;BME280;65863;49.506;10.400;2023-07-31T04:14:30;97845.97;;;15.00;73.15
9423;BME280;65863;49.506;10.400;2023-07-31T04:17:14;97852.97;;;15.09;73.21
9423;BME280;65863;49.506;10.400;2023-07-31T04:19:58;97841.00;;;14.91;73.30
9423;BME280;65863;49.506;10.400;2023-07-31T04:22:42;97866.97;;;15.17;73.47
9423;BME280;65863;49.506;10.400;2023-07-31T04:25:27;97838.84;;;15.09;73.33
9423;BME280;65863;49.506;10.400;2023-07-31T04:28:11;97868.66;;;15.29;73.67
9423;BME280;65863;49.506;10.400;2023-07-31T04:30:55;97846.19;;;15.22;73.45
9423;BME280;65863;49.506;10.400;2023-07-31T04:33:39;97807.03;;;15.08;73.42
9423;BME280;65863;49.506;10.400;2023-07-31T04:36:23;97824.28;;;15.22;73.43
9423;BME280;65863;49.506;10.400;2023-07-31T04:39:07;97787.34;;;15.01;73.48
9423;BME280;65863;49.506;10.400;2023-07-31T04:41:51;97825.69;;;15.31;73.46
9423;BME280;65863;49.506;10.400;2023-07-31T04:44:35;97820.31;;;15.35;73.41
9423;BME280;65863;49.506;10.400;2023-07-31T04:47:19;97820.81;;;15.51;73.01
9423;BME280;65863;49.506;10.400;2023-07-31T04:50:04;97826.03;;;15.74;72.59
9423;BME280;65863;49.506;10.400;2023-07-31T04:52:48;97817.00;;;15.86;71.87
9423;BME280;65863;49.506;10.400;2023-07-31T04:55:31;97793.16;;;15.79;71.31
9423;BME280;65863;49.506;10.400;2023-07-31T04:58:15;97821.47;;;16.08;70.77
9423;BME280;65863;49.506;10.400;2023-07-31T05:00:59;97800.00;;;16.05;70.23
9423;BME280;65863;49.506;10.400;2023-07-31T05:03:43;97815.81;;;16.18;69.97
9423;BME280;65863;49.506;10.400;2023-07-31T05:06:28;97828.63;;;16.29;69.52
9423;BME280;65863;49.506;10.400;2023-07-31T05:09:12;97830.25;;;16.32;69.25
9423;BME280;65863;49.506;10.400;2023-07-31T05:11:56;97829.94;;;16.38;68.71
9423;BME280;65863;49.506;10.400;2023-07-31T05:14:40;97827.09;;;16.47;68.52
9423;BME280;65863;49.506;10.400;2023-07-31T05:17:25;97846.44;;;16.61;68.00
9423;BME280;65863;49.506;10.400;2023-07-31T05:20:09;97806.22;;;16.43;67.96
9423;BME280;65863;49.506;10.400;2023-07-31T05:22:53;97818.88;;;16.51;67.71
9423;BME280;65863;49.506;10.400;2023-07-31T05:25:37;97808.72;;;16.48;67.67
9423;BME280;65863;49.506;10.400;2023-07-31T05:28:21;97841.63;;;16.73;67.98
9423;BME280;65863;49.506;10.400;2023-07-31T05:31:05;97827.09;;;16.47;67.74
9423;BME280;65863;49.506;10.400;2023-07-31T05:33:50;97794.63;;;16.29;68.18
9423;BME280;65863;49.506;10.400;2023-07-31T05:36:34;97807.69;;;16.44;68.07
9423;BME280;65863;49.506;10.400;2023-07-31T05:39:19;97784.44;;;16.45;68.23
9423;BME280;65863;49.506;10.400;2023-07-31T05:42:04;97835.47;;;16.86;68.27
9423;BME280;65863;49.506;10.400;2023-07-31T05:44:48;97819.53;;;16.91;68.01
9423;BME280;65863;49.506;10.400;2023-07-31T05:47:32;97815.50;;;16.94;67.67
9423;BME280;65863;49.506;10.400;2023-07-31T05:50:16;97804.31;;;17.18;67.30
9423;BME280;65863;49.506;10.400;2023-07-31T05:53:00;97803.31;;;17.13;66.56
9423;BME280;65863;49.506;10.400;2023-07-31T05:55:44;97834.81;;;17.39;66.51
9423;BME280;65863;49.506;10.400;2023-07-31T05:58:28;97803.97;;;17.55;66.50
9423;BME280;65863;49.506;10.400;2023-07-31T06:01:13;97761.06;;;17.61;65.36
9423;BME280;65863;49.506;10.400;2023-07-31T06:03:57;97788.78;;;17.72;64.63
9423;BME280;65863;49.506;10.400;2023-07-31T06:06:41;97789.31;;;17.59;64.59
9423;BME280;65863;49.506;10.400;2023-07-31T06:09:24;97832.53;;;17.69;64.92
9423;BME280;65863;49.506;10.400;2023-07-31T06:12:09;97822.13;;;17.62;65.25
9423;BME280;65863;49.506;10.400;2023-07-31T06:14:53;97814.16;;;17.48;65.79
9423;BME280;65863;49.506;10.400;2023-07-31T06:17:37;97822.53;;;17.46;65.53
9423;BME280;65863;49.506;10.400;2023-07-31T06:20:21;97819.56;;;17.44;65.71
9423;BME280;65863;49.506;10.400;2023-07-31T06:23:05;97813.41;;;17.48;65.88
9423;BME280;65863;49.506;10.400;2023-07-31T06:25:50;97759.72;;;17.40;65.82
9423;BME280;65863;49.506;10.400;2023-07-31T06:28:34;97841.25;;;17.83;65.35
9423;BME280;65863;49.506;10.400;2023-07-31T06:31:19;97807.81;;;17.81;65.23
9423;BME280;65863;49.506;10.400;2023-07-31T06:34:06;97762.69;;;17.64;64.68
9423;BME280;65863;49.506;10.400;2023-07-31T06:36:50;97799.56;;;17.85;64.72
9423;BME280;65863;49.506;10.400;2023-07-31T06:39:34;97831.00;;;18.33;64.90
9423;BME280;65863;49.506;10.400;2023-07-31T06:42:18;97852.31;;;18.44;63.89
9423;BME280;65863;49.506;10.400;2023-07-31T06:45:03;97811.47;;;18.27;63.69
9423;BME280;65863;49.506;10.400;2023-07-31T06:47:47;97819.56;;;18.42;63.75
9423;BME280;65863;49.506;10.400;2023-07-31T06:50:31;97827.22;;;18.40;62.71
9423;BME280;65863;49.506;10.400;2023-07-31T06:53:16;97807.81;;;18.36;62.57
9423;BME280;65863;49.506;10.400;2023-07-31T06:56:00;97831.44;;;18.51;62.23
9423;BME280;65863;49.506;10.400;2023-07-31T06:58:44;97834.31;;;18.63;62.14
9423;BME280;65863;49.506;10.400;2023-07-31T07:01:28;97828.75;;;18.53;61.83
9423;BME280;65863;49.506;10.400;2023-07-31T07:04:13;97852.03;;;18.73;61.81
9423;BME280;65863;49.506;10.400;2023-07-31T07:06:57;97821.19;;;18.46;61.32
9423;BME280;65863;49.506;10.400;2023-07-31T07:09:41;97851.34;;;18.96;60.91
9423;BME280;65863;49.506;10.400;2023-07-31T07:12:28;97850.97;;;19.02;59.92
9423;BME280;65863;49.506;10.400;2023-07-31T07:15:13;97822.22;;;18.74;59.72
9423;BME280;65863;49.506;10.400;2023-07-31T07:17:57;97800.44;;;18.43;60.10
9423;BME280;65863;49.506;10.400;2023-07-31T07:20:46;97848.91;;;18.69;60.84
9423;BME280;65863;49.506;10.400;2023-07-31T07:23:31;97818.47;;;18.48;60.93
9423;BME280;65863;49.506;10.400;2023-07-31T07:26:15;97820.50;;;18.81;61.17
9423;BME280;65863;49.506;10.400;2023-07-31T07:29:02;97826.34;;;19.54;60.05
9423;BME280;65863;49.506;10.400;2023-07-31T07:31:46;97812.16;;;20.29;58.07
9423;BME280;65863;49.506;10.400;2023-07-31T07:34:30;97814.50;;;21.40;56.28
9423;BME280;65863;49.506;10.400;2023-07-31T07:37:14;97803.38;;;21.46;54.42
9423;BME280;65863;49.506;10.400;2023-07-31T07:39:58;97817.56;;;21.30;53.88
9423;BME280;65863;49.506;10.400;2023-07-31T07:42:42;97815.56;;;21.32;54.55
9423;BME280;65863;49.506;10.400;2023-07-31T07:45:26;97826.22;;;21.18;54.71
9423;BME280;65863;49.506;10.400;2023-07-31T07:48:10;97825.31;;;20.88;54.60
9423;BME280;65863;49.506;10.400;2023-07-31T07:50:54;97797.25;;;20.56;55.40
9423;BME280;65863;49.506;10.400;2023-07-31T07:53:38;97803.81;;;20.07;56.28
9423;BME280;65863;49.506;10.400;2023-07-31T07:56:23;97811.06;;;20.22;57.30
9423;BME280;65863;49.506;10.400;2023-07-31T07:59:08;97757.41;;;19.55;57.62
9423;BME280;65863;49.506;10.400;2023-07-31T08:01:52;97803.47;;;20.01;58.07
9423;BME280;65863;49.506;10.400;2023-07-31T08:04:36;97769.75;;;20.09;58.08
9423;BME280;65863;49.506;10.400;2023-07-31T08:07:20;97832.03;;;20.41;57.15
9423;BME280;65863;49.506;10.400;2023-07-31T08:10:04;97801.84;;;20.36;57.35
9423;BME280;65863;49.506;10.400;2023-07-31T08:12:48;97796.19;;;20.63;57.14
9423;BME280;65863;49.506;10.400;2023-07-31T08:15:32;97784.94;;;20.79;56.60
9423;BME280;65863;49.506;10.400;2023-07-31T08:18:16;97759.50;;;20.44;56.20
9423;BME280;65863;49.506;10.400;2023-07-31T08:21:03;97786.13;;;20.74;56.64
9423;BME280;65863;49.506;10.400;2023-07-31T08:23:47;97791.63;;;20.84;56.96
9423;BME280;65863;49.506;10.400;2023-07-31T08:26:32;97758.25;;;20.87;55.94
9423;BME280;65863;49.506;10.400;2023-07-31T08:29:16;97793.47;;;21.05;56.06
9423;BME280;65863;49.506;10.400;2023-07-31T08:34:45;97746.41;;;21.20;56.38
9423;BME280;65863;49.506;10.400;2023-07-31T08:37:28;97771.72;;;21.83;55.22
9423;BME280;65863;49.506;10.400;2023-07-31T08:40:13;97778.13;;;21.68;54.60
9423;BME280;65863;49.506;10.400;2023-07-31T08:42:57;97769.75;;;21.30;55.00
9423;BME280;65863;49.506;10.400;2023-07-31T08:45:46;97748.19;;;20.72;55.00
9423;BME280;65863;49.506;10.400;2023-07-31T08:48:32;97778.44;;;21.05;56.18
9423;BME280;65863;49.506;10.400;2023-07-31T08:51:17;97782.56;;;21.57;55.81
9423;BME280;65863;49.506;10.400;2023-07-31T08:54:01;97798.44;;;22.04;55.34
9423;BME280;65863;49.506;10.400;2023-07-31T08:56:47;97749.84;;;22.34;53.53
9423;BME280;65863;49.506;10.400;2023-07-31T08:59:34;97755.88;;;22.56;52.20
9423;BME280;65863;49.506;10.400;2023-07-31T09:02:19;97767.50;;;22.14;52.36
9423;BME280;65863;49.506;10.400;2023-07-31T09:05:05;97783.91;;;22.14;52.71
9423;BME280;65863;49.506;10.400;2023-07-31T09:07:50;97757.84;;;21.92;52.51
9423;BME280;65863;49.506;10.400;2023-07-31T09:10:35;97776.00;;;21.69;52.74
9423;BME280;65863;49.506;10.400;2023-07-31T09:13:19;97739.41;;;21.51;53.39
9423;BME280;65863;49.506;10.400;2023-07-31T09:16:03;97769.47;;;21.52;53.30
9423;BME280;65863;49.506;10.400;2023-07-31T09:18:54;97767.97;;;21.51;53.68
9423;BME280;65863;49.506;10.400;2023-07-31T09:21:48;97754.03;;;21.87;53.91
9423;BME280;65863;49.506;10.400;2023-07-31T09:24:33;97783.81;;;21.82;53.40
9423;BME280;65863;49.506;10.400;2023-07-31T09:27:17;97773.03;;;21.66;53.67
9423;BME280;65863;49.506;10.400;2023-07-31T09:30:01;97771.38;;;21.91;53.84
9423;BME280;65863;49.506;10.400;2023-07-31T09:32:46;97746.09;;;21.56;53.48
9423;BME280;65863;49.506;10.400;2023-07-31T09:35:33;97764.25;;;21.76;53.27
9423;BME280;65863;49.506;10.400;2023-07-31T09:38:18;97701.94;;;21.73;52.50
9423;BME280;65863;49.506;10.400;2023-07-31T09:41:02;97749.59;;;22.14;52.48
9423;BME280;65863;49.506;10.400;2023-07-31T09:43:53;97751.44;;;22.37;52.36
9423;BME280;65863;49.506;10.400;2023-07-31T09:46:37;97746.19;;;22.63;52.06
9423;BME280;65863;49.506;10.400;2023-07-31T09:49:24;97748.13;;;22.75;50.61
9423;BME280;65863;49.506;10.400;2023-07-31T09:52:12;97748.19;;;22.29;50.57
9423;BME280;65863;49.506;10.400;2023-07-31T09:54:57;97744.03;;;22.32;51.62
9423;BME280;65863;49.506;10.400;2023-07-31T09:57:44;97754.59;;;22.59;51.89
9423;BME280;65863;49.506;10.400;2023-07-31T10:00:29;97721.59;;;22.10;51.42
9423;BME280;65863;49.506;10.400;2023-07-31T10:03:14;97734.53;;;21.67;51.54
9423;BME280;65863;49.506;10.400;2023-07-31T10:06:00;97719.28;;;21.77;52.59
9423;BME280;65863;49.506;10.400;2023-07-31T10:08:47;97706.72;;;22.44;53.00
9423;BME280;65863;49.506;10.400;2023-07-31T10:11:38;97705.78;;;22.55;51.39
9423;BME280;65863;49.506;10.400;2023-07-31T10:14:26;97678.25;;;22.96;51.10
9423;BME280;65863;49.506;10.400;2023-07-31T10:17:10;97685.22;;;23.25;50.45
9423;BME280;65863;49.506;10.400;2023-07-31T10:19:57;97657.91;;;22.72;50.13
9423;BME280;65863;49.506;10.400;2023-07-31T10:22:42;97692.59;;;22.64;50.35
9423;BME280;65863;49.506;10.400;2023-07-31T10:25:27;97650.75;;;21.93;50.51
9423;BME280;65863;49.506;10.400;2023-07-31T10:28:12;97695.38;;;22.46;50.39
9423;BME280;65863;49.506;10.400;2023-07-31T10:30:56;97704.69;;;22.78;50.31
9423;BME280;65863;49.506;10.400;2023-07-31T10:33:40;97722.94;;;22.87;50.69
9423;BME280;65863;49.506;10.400;2023-07-31T10:36:24;97688.09;;;22.43;50.17
9423;BME280;65863;49.506;10.400;2023-07-31T10:39:37;97704.78;;;22.02;50.93
9423;BME280;65863;49.506;10.400;2023-07-31T10:42:45;97714.25;;;21.61;51.42
9423;BME280;65863;49.506;10.400;2023-07-31T10:48:15;97686.00;;;21.67;52.55
9423;BME280;65863;49.506;10.400;2023-07-31T10:50:59;97660.81;;;21.64;52.00
9423;BME280;65863;49.506;10.400;2023-07-31T10:53:43;97644.66;;;21.55;52.13
9423;BME280;65863;49.506;10.400;2023-07-31T10:56:37;97683.91;;;21.84;52.38
9423;BME280;65863;49.506;10.400;2023-07-31T10:59:26;97692.03;;;21.90;52.24
9423;BME280;65863;49.506;10.400;2023-07-31T11:02:24;97658.84;;;21.82;52.63
9423;BME280;65863;49.506;10.400;2023-07-31T11:05:10;97664.78;;;22.02;52.64
9423;BME280;65863;49.506;10.400;2023-07-31T11:07:55;97612.69;;;21.88;51.97
9423;BME280;65863;49.506;10.400;2023-07-31T11:10:39;97649.84;;;22.04;51.56
9423;BME280;65863;49.506;10.400;2023-07-31T11:13:24;97669.31;;;22.08;52.04
9423;BME280;65863;49.506;10.400;2023-07-31T11:16:09;97661.91;;;22.02;52.30
9423;BME280;65863;49.506;10.400;2023-07-31T11:18:53;97637.03;;;22.05;52.46
9423;BME280;65863;49.506;10.400;2023-07-31T11:21:39;97635.94;;;21.96;51.67
9423;BME280;65863;49.506;10.400;2023-07-31T11:24:24;97646.03;;;21.83;51.56
9423;BME280;65863;49.506;10.400;2023-07-31T11:27:08;97639.03;;;21.71;52.40
9423;BME280;65863;49.506;10.400;2023-07-31T11:29:52;97612.94;;;21.62;52.20
9423;BME280;65863;49.506;10.400;2023-07-31T11:32:37;97666.19;;;21.72;52.35
9423;BME280;65863;49.506;10.400;2023-07-31T11:35:20;97670.06;;;21.78;52.90
9423;BME280;65863;49.506;10.400;2023-07-31T11:38:05;97655.34;;;21.84;53.04
9423;BME280;65863;49.506;10.400;2023-07-31T11:40:49;97688.28;;;22.01;52.12
9423;BME280;65863;49.506;10.400;2023-07-31T11:43:33;97666.63;;;21.96;51.85
9423;BME280;65863;49.506;10.400;2023-07-31T11:46:18;97621.44;;;21.92;51.49
9423;BME280;65863;49.506;10.400;2023-07-31T11:49:02;97642.56;;;22.01;51.66
9423;BME280;65863;49.506;10.400;2023-07-31T11:51:47;97628.47;;;21.89;51.76
9423;BME280;65863;49.506;10.400;2023-07-31T11:54:31;97655.47;;;21.86;51.92
9423;BME280;65863;49.506;10.400;2023-07-31T11:57:15;97613.66;;;21.63;52.29
9423;BME280;65863;49.506;10.400;2023-07-31T12:00:00;97650.03;;;21.92;52.12
9423;BME280;65863;49.506;10.400;2023-07-31T12:02:44;97635.28;;;21.98;51.52
9423;BME280;65863;49.506;10.400;2023-07-31T12:05:29;97637.75;;;22.35;51.50
9423;BME280;65863;49.506;10.400;2023-07-31T12:08:14;97559.97;;;21.91;50.75
9423;BME280;65863;49.506;10.400;2023-07-31T12:11:04;97645.78;;;22.89;50.36
9423;BME280;65863;49.506;10.400;2023-07-31T12:13:48;97570.25;;;22.96;49.55
9423;BME280;65863;49.506;10.400;2023-07-31T12:16:32;97614.75;;;23.33;48.95
9423;BME280;65863;49.506;10.400;2023-07-31T12:19:18;97608.19;;;23.31;48.36
9423;BME280;65863;49.506;10.400;2023-07-31T12:22:14;97622.19;;;23.41;48.49
9423;BME280;65863;49.506;10.400;2023-07-31T12:24:58;97566.97;;;23.94;48.60
9423;BME280;65863;49.506;10.400;2023-07-31T12:27:45;97592.22;;;24.18;47.34
9423;BME280;65863;49.506;10.400;2023-07-31T12:30:33;97538.47;;;24.18;47.14
9423;BME280;65863;49.506;10.400;2023-07-31T12:33:18;97577.16;;;24.57;46.27
9423;BME280;65863;49.506;10.400;2023-07-31T12:36:04;97589.75;;;23.90;46.44
9423;BME280;65863;49.506;10.400;2023-07-31T12:38:50;97577.50;;;23.69;47.14
9423;BME280;65863;49.506;10.400;2023-07-31T12:41:35;97612.13;;;23.40;47.71
9423;BME280;65863;49.506;10.400;2023-07-31T12:44:19;97586.44;;;23.24;48.11
9423;BME280;65863;49.506;10.400;2023-07-31T12:47:03;97588.53;;;23.23;48.00
9423;BME280;65863;49.506;10.400;2023-07-31T12:49:47;97589.84;;;23.74;47.93
9423;BME280;65863;49.506;10.400;2023-07-31T12:52:32;97592.84;;;23.96;47.04
9423;BME280;65863;49.506;10.400;2023-07-31T12:55:16;97570.44;;;23.91;46.77
9423;BME280;65863;49.506;10.400;2023-07-31T12:58:00;97580.53;;;24.32;45.97
9423;BME280;65863;49.506;10.400;2023-07-31T13:00:44;97505.28;;;24.31;45.52
9423;BME280;65863;49.506;10.400;2023-07-31T13:03:29;97574.19;;;24.96;45.73
9423;BME280;65863;49.506;10.400;2023-07-31T13:06:13;97546.47;;;25.04;45.01
9423;BME280;65863;49.506;10.400;2023-07-31T13:08:57;97555.81;;;24.83;44.98
9423;BME280;65863;49.506;10.400;2023-07-31T13:11:41;97531.97;;;24.58;45.36
9423;BME280;65863;49.506;10.400;2023-07-31T13:14:25;97532.81;;;24.61;45.48
9423;BME280;65863;49.506;10.400;2023-07-31T13:17:09;97536.44;;;24.21;45.70
9423;BME280;65863;49.506;10.400;2023-07-31T13:19:53;97547.88;;;24.21;46.65
9423;BME280;65863;49.506;10.400;2023-07-31T13:22:38;97541.44;;;24.61;45.93
9423;BME280;65863;49.506;10.400;2023-07-31T13:25:22;97552.94;;;24.83;45.12
9423;BME280;65863;49.506;10.400;2023-07-31T13:28:06;97417.22;;;23.53;46.22
9423;BME280;65863;49.506;10.400;2023-07-31T13:30:50;97457.41;;;24.16;46.24
9423;BME280;65863;49.506;10.400;2023-07-31T13:33:37;97484.34;;;25.37;45.94
9423;BME280;65863;49.506;10.400;2023-07-31T13:36:21;97463.53;;;24.68;44.13
9423;BME280;65863;49.506;10.400;2023-07-31T13:39:05;97496.81;;;24.78;46.36
9423;BME280;65863;49.506;10.400;2023-07-31T13:41:50;97507.22;;;24.47;44.67
9423;BME280;65863;49.506;10.400;2023-07-31T13:44:34;97489.34;;;23.68;46.19
9423;BME280;65863;49.506;10.400;2023-07-31T13:47:19;97513.78;;;23.51;47.32
9423;BME280;65863;49.506;10.400;2023-07-31T13:50:03;97466.84;;;22.86;47.67
9423;BME280;65863;49.506;10.400;2023-07-31T13:52:47;97520.06;;;22.93;48.42
9423;BME280;65863;49.506;10.400;2023-07-31T13:55:31;97508.03;;;22.79;48.58
9423;BME280;65863;49.506;10.400;2023-07-31T13:58:15;97513.88;;;22.65;48.90
9423;BME280;65863;49.506;10.400;2023-07-31T14:00:59;97499.53;;;22.47;48.54
9423;BME280;65863;49.506;10.400;2023-07-31T14:03:43;97514.38;;;22.59;48.67
9423;BME280;65863;49.506;10.400;2023-07-31T14:06:27;97521.75;;;22.64;49.49
9423;BME280;65863;49.506;10.400;2023-07-31T14:09:11;97482.63;;;22.19;50.00
9423;BME280;65863;49.506;10.400;2023-07-31T14:11:55;97510.09;;;22.26;50.13
9423;BME280;65863;49.506;10.400;2023-07-31T14:14:39;97499.41;;;22.11;50.52
9423;BME280;65863;49.506;10.400;2023-07-31T14:17:23;97501.25;;;22.04;50.61
9423;BME280;65863;49.506;10.400;2023-07-31T14:20:08;97510.84;;;22.11;50.56
9423;BME280;65863;49.506;10.400;2023-07-31T14:22:52;97480.47;;;22.01;50.66
9423;BME280;65863;49.506;10.400;2023-07-31T14:25:37;97504.28;;;22.24;50.76
9423;BME280;65863;49.506;10.400;2023-07-31T14:28:21;97489.53;;;22.30;50.94
9423;BME280;65863;49.506;10.400;2023-07-31T14:31:05;97498.59;;;22.24;51.25
9423;BME280;65863;49.506;10.400;2023-07-31T14:33:49;97507.22;;;22.26;50.96
9423;BME280;65863;49.506;10.400;2023-07-31T14:36:33;97478.41;;;22.04;51.18
9423;BME280;65863;49.506;10.400;2023-07-31T14:39:17;97520.63;;;22.22;51.50
9423;BME280;65863;49.506;10.400;2023-07-31T14:42:01;97502.00;;;22.05;51.96